메인 페이지
METAR-TAF:

METAR-TAF

공항 :

무르탈라 모하메드 국제공항

라고스, 나이지리아

위도: 06-35N, 경도: 003-20E, 고도: 40m

현재 날씨관측

예보는 41분 전, 22:00시(UTC)에 발표되었습니다.
무풍
온도 24°C
습도 94%
기압 1015 hPa
시정 10km 이상
고도 800ft 상공 구름 조금

METAR: DNMM 012200Z 00000KT 9999 FEW008 24/23 Q1015 NOSIG

시각: 23:41 (22:41 UTC)

예보

예보는 5 시간 41분 전, 17:00시(UTC)에 발표되었습니다.
예보 대상 시간: 01일 18시부터 02일 24시까지 (UTC)
여러 방향의 바람 2kt
시정 10km 이상
고도 1000ft 상공 구름 조금
일시적
02일 05시부터 02일 08시까지 (UTC)
시정: 5000m
박무
전환 중
02일 08시부터 02일 10시까지 (UTC)
남서10kt
고도 1300ft 상공 구름 많음
일시적
02일 11시부터 02일 16시까지 (UTC)
고도 1300ft 상공 구름 많음
고도 2000ft 상공 구름 조금, 적란운.
고도 1100ft 상공 구름 보통
고도 2000ft 상공 구름 조금, 적란운.
전환 중
02일 17시부터 02일 19시까지 (UTC)
여러 방향의 바람 2kt
고도 1100ft 상공 구름 보통

TAF: DNMM 011700Z 0118/0224 VRB02KT 9999 FEW010 TEMPO 0205/0208 5000 BR BECMG 0208/0210 23010KT BKN013 TEMPO 0211/0216 BKN013 FEW020CB SCT011 FEW020CB BECMG 0217/0219 VRB02KT SCT011

4,000개 이상의 공항 관측 자료 및 예보 (METAR 및 TAF 보고).

지도상에서 검색 가능한 기상관측소가 노란 점과 빨간 점으로 표시되어 있습니다.

기상관측소 명을 보려면 표시 위로 마우스를 이동하세요.

날씨 관측과 예보를 보려면 클릭하세요.

지도 변경 : 확대하려면 엑스 표시가 있는 녹색 버튼, 축소하려면 빼기 표시가 있는 녹색 버튼, 다음 페이지의 지도를 보려면 녹색 화살표를 클릭하세요.


METAR-TAF: